createdAt,value
2023-05-09T00:01:07.644Z,3.65
2023-05-09T00:04:09.442Z,3.70
2023-05-09T00:07:11.059Z,3.72
2023-05-09T00:10:12.802Z,3.97
2023-05-09T00:13:14.719Z,3.50
2023-05-09T00:16:17.308Z,3.40
2023-05-09T00:19:19.201Z,3.88
2023-05-09T00:22:24.304Z,4.20
2023-05-09T00:25:26.121Z,4.25
2023-05-09T00:28:27.791Z,4.20
2023-05-09T00:31:29.545Z,3.55
2023-05-09T00:34:31.230Z,3.55
2023-05-09T00:37:32.941Z,4.03
2023-05-09T00:40:34.720Z,3.55
2023-05-09T00:43:36.500Z,3.95
2023-05-09T00:46:40.004Z,3.33
2023-05-09T00:49:41.680Z,3.53
2023-05-09T00:52:43.558Z,3.92
2023-05-09T00:55:45.677Z,3.97
2023-05-09T00:58:47.882Z,3.42
2023-05-09T01:01:49.764Z,4.10
2023-05-09T01:04:51.698Z,3.67
2023-05-09T01:08:35.991Z,4.38
2023-05-09T01:12:11.293Z,3.05
2023-05-09T01:15:36.775Z,4.97
2023-05-09T01:18:57.428Z,2.90
2023-05-09T01:22:02.263Z,2.70
2023-05-09T01:25:20.973Z,2.90
2023-05-09T01:28:53.706Z,2.88
2023-05-09T01:31:57.684Z,3.00
2023-05-09T01:35:02.782Z,3.08
2023-05-09T01:38:11.858Z,3.40
2023-05-09T01:41:16.337Z,3.05
2023-05-09T01:44:18.588Z,3.30
2023-05-09T01:47:21.240Z,2.88
2023-05-09T01:50:24.076Z,3.55
2023-05-09T01:53:28.270Z,3.17
2023-05-09T01:56:31.438Z,3.97
2023-05-09T01:59:35.152Z,3.72
2023-05-09T02:02:37.907Z,3.25
2023-05-09T02:05:41.806Z,3.20
2023-05-09T02:08:44.055Z,3.00
2023-05-09T02:11:46.945Z,3.30
2023-05-09T02:14:48.562Z,3.30
2023-05-09T02:17:50.308Z,3.05
2023-05-09T02:20:52.108Z,3.10
2023-05-09T02:23:53.897Z,3.15
2023-05-09T02:26:56.451Z,3.17
2023-05-09T02:30:02.560Z,3.05
2023-05-09T02:33:07.856Z,3.53
2023-05-09T02:36:12.294Z,3.83
2023-05-09T02:39:14.697Z,3.28
2023-05-09T02:42:25.215Z,3.88
2023-05-09T02:45:26.951Z,3.67
2023-05-09T02:48:28.615Z,3.50
2023-05-09T02:51:30.399Z,3.35
2023-05-09T02:54:32.142Z,3.35
2023-05-09T02:57:34.075Z,3.55
2023-05-09T03:00:35.817Z,3.40
2023-05-09T03:03:39.728Z,2.97
2023-05-09T03:06:41.683Z,3.70
2023-05-09T03:09:43.460Z,3.22
2023-05-09T03:12:46.037Z,3.42
2023-05-09T03:15:47.761Z,3.35
2023-05-09T03:18:49.453Z,3.10
2023-05-09T03:21:52.060Z,3.08
2023-05-09T03:24:53.878Z,2.95
2023-05-09T03:27:56.144Z,2.80
2023-05-09T03:30:58.598Z,3.25
2023-05-09T03:34:02.404Z,3.03
2023-05-09T03:37:04.295Z,3.10
2023-05-09T03:40:08.964Z,2.85
2023-05-09T03:43:17.663Z,3.42
2023-05-09T03:46:19.383Z,3.08
2023-05-09T03:49:23.102Z,3.25
2023-05-09T03:52:27.878Z,3.42
2023-05-09T03:55:30.460Z,3.40
2023-05-09T03:58:32.820Z,3.35
2023-05-09T04:01:35.442Z,3.22
2023-05-09T04:04:38.814Z,3.58
2023-05-09T04:07:41.256Z,3.30
2023-05-09T04:10:43.679Z,3.42
2023-05-09T04:13:45.365Z,3.08
2023-05-09T04:16:57.823Z,3.20
2023-05-09T04:19:59.551Z,3.45
2023-05-09T04:23:01.974Z,3.50
2023-05-09T04:26:04.426Z,3.17
2023-05-09T04:29:06.493Z,3.40
2023-05-09T04:32:08.499Z,3.50
2023-05-09T04:35:10.369Z,3.67
2023-05-09T04:38:16.878Z,3.17
2023-05-09T04:41:19.122Z,3.35
2023-05-09T04:44:21.701Z,2.97
2023-05-09T04:47:23.571Z,3.22
2023-05-09T04:50:25.564Z,3.20
2023-05-09T04:53:28.277Z,3.25
2023-05-09T04:56:30.912Z,3.35
2023-05-09T04:59:34.037Z,3.17
2023-05-09T05:02:36.055Z,3.33
2023-05-09T05:05:37.991Z,3.50
2023-05-09T05:08:40.467Z,3.15
2023-05-09T05:11:50.543Z,3.78
2023-05-09T05:15:00.675Z,3.30
2023-05-09T05:18:02.547Z,3.28
2023-05-09T05:21:08.687Z,3.70
2023-05-09T05:24:10.388Z,3.15
2023-05-09T05:27:12.323Z,3.65
2023-05-09T05:30:15.725Z,3.70
2023-05-09T05:33:18.310Z,3.47
2023-05-09T05:36:20.065Z,3.42
2023-05-09T05:39:22.645Z,3.08
2023-05-09T05:42:24.722Z,3.28
2023-05-09T05:45:26.848Z,3.78
2023-05-09T05:48:31.434Z,3.28
2023-05-09T05:51:33.680Z,3.80
2023-05-09T05:54:36.272Z,3.40
2023-05-09T05:57:39.125Z,4.10
2023-05-09T06:00:43.485Z,5.83
2023-05-09T06:03:45.528Z,5.40
2023-05-09T06:06:48.347Z,4.88
2023-05-09T06:09:52.957Z,5.05
2023-05-09T06:12:54.769Z,3.92
2023-05-09T06:16:02.011Z,4.20
2023-05-09T06:19:09.754Z,4.10
2023-05-09T06:22:11.584Z,3.80
2023-05-09T06:25:13.502Z,3.80
2023-05-09T06:28:15.355Z,4.53
2023-05-09T06:31:16.988Z,3.92
2023-05-09T06:34:18.628Z,3.80
2023-05-09T06:37:20.283Z,3.72
2023-05-09T06:40:22.239Z,3.70
2023-05-09T06:43:23.852Z,5.85
2023-05-09T06:46:25.941Z,4.93
2023-05-09T06:49:27.583Z,3.45
2023-05-09T06:52:29.264Z,3.83
2023-05-09T06:55:30.927Z,3.28
2023-05-09T06:58:32.616Z,3.95
2023-05-09T07:01:34.514Z,4.40
2023-05-09T07:04:36.235Z,3.85
2023-05-09T07:07:38.032Z,4.03
2023-05-09T07:10:39.883Z,3.92
2023-05-09T07:13:41.925Z,3.80
2023-05-09T07:16:43.604Z,4.00
2023-05-09T07:19:45.313Z,3.80
2023-05-09T07:22:47.085Z,3.70
2023-05-09T07:25:48.772Z,3.45
2023-05-09T07:28:50.371Z,3.60
2023-05-09T07:31:52.070Z,3.88
2023-05-09T07:34:53.760Z,3.72
2023-05-09T07:37:55.370Z,3.45
2023-05-09T07:40:57.074Z,3.40
2023-05-09T07:43:58.691Z,3.53
2023-05-09T07:47:01.184Z,4.00
2023-05-09T07:50:02.835Z,3.83
2023-05-09T07:53:04.584Z,3.72
2023-05-09T07:56:06.929Z,3.78
2023-05-09T07:59:08.648Z,4.03
2023-05-09T08:02:10.456Z,4.20
2023-05-09T08:05:13.889Z,3.65
2023-05-09T08:08:15.777Z,3.95
2023-05-09T08:11:17.489Z,4.10
2023-05-09T08:14:19.126Z,3.78
2023-05-09T08:17:20.831Z,3.92
2023-05-09T08:20:22.489Z,4.10
2023-05-09T08:23:24.066Z,3.72
2023-05-09T08:26:27.201Z,3.45
2023-05-09T08:29:29.998Z,3.55
2023-05-09T08:32:32.049Z,3.70
2023-05-09T08:35:33.964Z,3.70
2023-05-09T08:38:36.545Z,3.50
2023-05-09T08:41:39.558Z,3.13
2023-05-09T08:44:41.243Z,3.70
2023-05-09T08:47:43.040Z,4.03
2023-05-09T08:50:45.041Z,3.75
2023-05-09T08:53:47.219Z,3.92
2023-05-09T08:56:49.404Z,3.95
2023-05-09T08:59:52.496Z,3.85
2023-05-09T09:02:54.336Z,3.88
2023-05-09T09:05:57.863Z,4.00
2023-05-09T09:09:00.523Z,4.32
2023-05-09T09:12:06.773Z,3.65
2023-05-09T09:15:14.938Z,3.92
2023-05-09T09:18:23.528Z,4.45
2023-05-09T09:21:25.570Z,4.13
2023-05-09T09:24:27.285Z,3.97
2023-05-09T09:27:29.093Z,4.30
2023-05-09T09:30:30.817Z,4.60
2023-05-09T09:33:32.515Z,4.32
2023-05-09T09:36:34.717Z,4.55
2023-05-09T09:39:36.476Z,4.85
2023-05-09T09:42:43.590Z,3.58
2023-05-09T09:45:49.674Z,4.28
2023-05-09T09:51:58.561Z,4.20
2023-05-09T09:55:00.467Z,4.45
2023-05-09T09:58:02.373Z,4.25
2023-05-09T10:01:06.500Z,4.75
2023-05-09T10:04:09.250Z,4.30
2023-05-09T10:07:13.670Z,4.32
2023-05-09T10:10:17.275Z,4.97
2023-05-09T10:13:19.301Z,4.05
2023-05-09T10:16:28.578Z,4.43
2023-05-09T10:19:43.396Z,4.47
2023-05-09T10:22:45.911Z,4.43
2023-05-09T10:25:54.536Z,4.32
2023-05-09T10:28:58.432Z,4.47
2023-05-09T10:32:08.387Z,4.50
2023-05-09T10:35:11.657Z,4.72
2023-05-09T10:38:14.097Z,4.45
2023-05-09T10:41:19.989Z,4.18
2023-05-09T10:44:24.180Z,4.20
2023-05-09T10:47:28.012Z,3.67
2023-05-09T10:50:31.412Z,4.18
2023-05-09T10:53:44.230Z,3.95
2023-05-09T10:56:46.056Z,3.90
2023-05-09T10:59:51.375Z,3.72
2023-05-09T11:03:08.503Z,4.28
2023-05-09T11:06:10.259Z,3.80
2023-05-09T11:09:28.660Z,3.55
2023-05-09T11:12:30.388Z,3.70
2023-05-09T11:15:32.027Z,3.20
2023-05-09T11:18:33.872Z,3.33
2023-05-09T11:21:36.757Z,3.60
2023-05-09T11:24:38.737Z,3.25
2023-05-09T11:27:43.625Z,3.10
2023-05-09T11:30:45.333Z,3.45
2023-05-09T11:33:55.100Z,3.50
2023-05-09T11:37:09.589Z,3.13
2023-05-09T11:40:12.736Z,3.03
2023-05-09T11:43:14.830Z,3.08
2023-05-09T11:46:16.863Z,3.10
2023-05-09T11:49:19.655Z,3.25
2023-05-09T11:52:22.224Z,2.67
2023-05-09T11:55:25.626Z,2.90
2023-05-09T11:58:28.293Z,2.90
2023-05-09T12:01:30.563Z,2.47
2023-05-09T12:04:32.926Z,2.78
2023-05-09T12:07:34.688Z,3.10
2023-05-09T12:10:40.187Z,2.60
2023-05-09T12:13:49.167Z,3.25
2023-05-09T12:16:50.836Z,3.00
2023-05-09T12:19:52.927Z,3.00
2023-05-09T12:22:54.776Z,3.20
2023-05-09T12:25:57.615Z,3.10
2023-05-09T12:28:59.586Z,3.20
2023-05-09T12:32:01.470Z,2.90
2023-05-09T12:35:03.444Z,2.95
2023-05-09T12:38:05.200Z,3.25
2023-05-09T12:41:18.238Z,3.25
2023-05-09T12:44:29.386Z,2.88
2023-05-09T12:47:32.504Z,3.00
2023-05-09T12:50:35.639Z,3.13
2023-05-09T12:53:41.698Z,3.05
2023-05-09T12:56:43.515Z,3.45
2023-05-09T12:59:45.309Z,3.63
2023-05-09T13:02:50.897Z,3.20
2023-05-09T13:09:06.425Z,3.45
2023-05-09T13:12:10.064Z,3.25
2023-05-09T13:15:12.495Z,3.22
2023-05-09T13:18:14.512Z,3.08
2023-05-09T13:21:16.282Z,3.13
2023-05-09T13:24:18.025Z,2.78
2023-05-09T13:27:20.237Z,2.97
2023-05-09T13:30:22.056Z,2.67
2023-05-09T13:33:26.553Z,2.90
2023-05-09T13:36:28.582Z,2.90
2023-05-09T13:39:31.659Z,2.33
2023-05-09T13:42:34.733Z,2.30
2023-05-09T13:45:36.431Z,3.20
2023-05-09T13:48:38.067Z,2.67
2023-05-09T13:51:39.667Z,2.90
2023-05-09T13:54:41.526Z,3.42
2023-05-09T13:57:43.307Z,3.17
2023-05-09T14:00:52.805Z,3.03
2023-05-09T14:03:54.441Z,3.00
2023-05-09T14:06:56.600Z,3.15
2023-05-09T14:10:11.396Z,3.30
2023-05-09T14:13:15.775Z,3.30
2023-05-09T14:16:17.630Z,3.00
2023-05-09T14:19:19.917Z,2.85
2023-05-09T14:22:21.718Z,2.70
2023-05-09T14:25:23.334Z,2.75
2023-05-09T14:28:24.975Z,2.83
2023-05-09T14:31:26.660Z,2.90
2023-05-09T14:34:28.315Z,2.80
2023-05-09T14:37:30.364Z,3.15
2023-05-09T14:40:32.255Z,2.70
2023-05-09T14:43:33.950Z,3.20
2023-05-09T14:46:36.996Z,3.00
2023-05-09T14:49:41.495Z,3.08
2023-05-09T14:52:44.100Z,2.95
2023-05-09T14:55:45.801Z,3.35
2023-05-09T14:58:47.536Z,3.30
2023-05-09T15:01:51.067Z,3.08
2023-05-09T15:04:52.935Z,2.90
2023-05-09T15:07:54.607Z,2.88
2023-05-09T15:10:57.735Z,3.05
2023-05-09T15:13:59.729Z,3.10
2023-05-09T15:17:04.245Z,2.97
2023-05-09T15:20:07.191Z,3.20
2023-05-09T15:23:09.238Z,3.20
2023-05-09T15:26:17.041Z,3.00
2023-05-09T15:29:19.158Z,3.25
2023-05-09T15:32:21.145Z,3.17
2023-05-09T15:35:23.119Z,3.30
2023-05-09T15:38:24.772Z,3.30
2023-05-09T15:41:27.290Z,3.20
2023-05-09T15:44:28.895Z,2.80
2023-05-09T15:47:30.498Z,2.92
2023-05-09T15:50:32.371Z,4.00
2023-05-09T15:53:34.214Z,3.88
2023-05-09T15:56:36.081Z,4.13
2023-05-09T15:59:37.773Z,3.45
2023-05-09T16:02:39.679Z,3.60
2023-05-09T16:05:41.584Z,3.47
2023-05-09T16:08:43.359Z,3.22
2023-05-09T16:11:45.169Z,3.58
2023-05-09T16:14:46.798Z,3.17
2023-05-09T16:17:48.508Z,3.00
2023-05-09T16:20:50.256Z,2.92
2023-05-09T16:23:51.871Z,2.95
2023-05-09T16:26:53.756Z,3.08
2023-05-09T16:29:55.450Z,2.60
2023-05-09T16:32:57.200Z,2.60
2023-05-09T16:35:59.236Z,2.33
2023-05-09T16:39:00.900Z,3.15
2023-05-09T16:42:02.728Z,2.75
2023-05-09T16:45:07.321Z,2.88
2023-05-09T16:48:09.199Z,2.85
2023-05-09T16:51:10.906Z,2.85
2023-05-09T16:54:12.977Z,3.20
2023-05-09T16:57:14.663Z,2.97
2023-05-09T17:00:17.751Z,2.97
2023-05-09T17:03:22.586Z,2.85
2023-05-09T17:06:24.287Z,3.22
2023-05-09T17:09:26.222Z,2.80
2023-05-09T17:12:28.008Z,3.05
2023-05-09T17:15:29.830Z,2.95
2023-05-09T17:18:37.405Z,3.13
2023-05-09T17:21:41.720Z,3.15
2023-05-09T17:24:46.780Z,3.58
2023-05-09T17:27:49.460Z,2.95
2023-05-09T17:30:51.412Z,3.72
2023-05-09T17:33:53.129Z,3.35
2023-05-09T17:36:54.798Z,2.85
2023-05-09T17:39:56.472Z,2.70
2023-05-09T17:42:58.232Z,2.17
2023-05-09T17:45:59.976Z,2.10
2023-05-09T17:49:01.978Z,2.75
2023-05-09T17:52:03.815Z,2.10
2023-05-09T17:55:06.084Z,2.15
2023-05-09T17:58:08.239Z,2.30
2023-05-09T18:01:10.146Z,2.28
2023-05-09T18:04:12.930Z,2.22
2023-05-09T18:07:15.096Z,2.08
2023-05-09T18:10:17.446Z,2.13
2023-05-09T18:13:19.511Z,3.50
2023-05-09T18:16:21.602Z,2.90
2023-05-09T18:19:23.270Z,2.83
2023-05-09T18:22:25.156Z,2.53
2023-05-09T18:25:26.820Z,2.10
2023-05-09T18:28:28.931Z,2.10
2023-05-09T18:31:31.561Z,1.90
2023-05-09T18:34:33.745Z,2.10
2023-05-09T18:37:36.935Z,1.80
2023-05-09T18:40:38.717Z,1.70
2023-05-09T18:43:46.009Z,1.95
2023-05-09T18:46:47.967Z,1.92
2023-05-09T18:49:49.638Z,2.03
2023-05-09T18:52:51.398Z,1.80
2023-05-09T18:55:53.344Z,2.20
2023-05-09T18:58:55.156Z,1.70
2023-05-09T19:01:57.087Z,1.60
2023-05-09T19:05:00.745Z,1.73
2023-05-09T19:08:03.660Z,1.80
2023-05-09T19:11:05.433Z,1.70
2023-05-09T19:14:07.267Z,1.60
2023-05-09T19:17:09.180Z,1.70
2023-05-09T19:20:12.527Z,1.90
2023-05-09T19:23:14.394Z,1.70
2023-05-09T19:26:16.997Z,1.70
2023-05-09T19:29:18.822Z,1.85
2023-05-09T19:32:20.491Z,1.52
2023-05-09T19:35:22.326Z,1.40
2023-05-09T19:38:24.420Z,1.60
2023-05-09T19:41:26.106Z,1.40
2023-05-09T19:44:27.951Z,1.67
2023-05-09T19:47:29.646Z,1.40
2023-05-09T19:50:31.359Z,1.50
2023-05-09T19:53:33.095Z,1.40
2023-05-09T19:56:34.899Z,1.60
2023-05-09T19:59:36.717Z,1.60
2023-05-09T20:02:39.020Z,1.50
2023-05-09T20:05:40.829Z,1.50
2023-05-09T20:08:42.649Z,1.60
2023-05-09T20:11:44.331Z,1.88
2023-05-09T20:14:46.033Z,1.60
2023-05-09T20:17:48.240Z,1.58
2023-05-09T20:20:50.069Z,1.55
2023-05-09T20:23:51.747Z,1.80
2023-05-09T20:26:55.091Z,1.40
2023-05-09T20:29:56.811Z,1.65
2023-05-09T20:32:58.818Z,1.38
2023-05-09T20:36:00.828Z,1.65
2023-05-09T20:39:03.347Z,1.88
2023-05-09T20:42:06.530Z,1.70
2023-05-09T20:45:08.660Z,1.73
2023-05-09T20:48:10.457Z,1.70
2023-05-09T20:51:12.153Z,1.50
2023-05-09T20:54:13.788Z,1.60
2023-05-09T20:57:15.470Z,1.60
2023-05-09T21:00:17.478Z,1.98
2023-05-09T21:03:19.437Z,2.20
2023-05-09T21:06:21.484Z,2.25
2023-05-09T21:09:23.132Z,1.73
2023-05-09T21:12:24.768Z,1.67
2023-05-09T21:15:26.563Z,1.60
2023-05-09T21:18:28.336Z,1.80
2023-05-09T21:21:31.586Z,1.90
2023-05-09T21:24:33.257Z,1.80
2023-05-09T21:27:35.137Z,1.70
2023-05-09T21:30:36.913Z,1.90
2023-05-09T21:33:38.750Z,2.00
2023-05-09T21:36:40.707Z,1.67
2023-05-09T21:39:42.394Z,1.98
2023-05-09T21:42:44.367Z,2.03
2023-05-09T21:45:46.249Z,1.80
2023-05-09T21:48:48.037Z,1.80
2023-05-09T21:51:49.954Z,1.90
2023-05-09T21:54:51.656Z,2.00
2023-05-09T21:57:53.343Z,2.03
2023-05-09T22:00:55.087Z,2.00
2023-05-09T22:03:56.840Z,2.10
2023-05-09T22:06:59.670Z,1.60
2023-05-09T22:10:01.504Z,1.73
2023-05-09T22:13:03.217Z,1.58
2023-05-09T22:16:05.111Z,2.00
2023-05-09T22:19:06.782Z,1.77
2023-05-09T22:22:08.436Z,1.70
2023-05-09T22:25:10.435Z,1.70
2023-05-09T22:28:12.093Z,1.83
2023-05-09T22:31:13.796Z,1.70
2023-05-09T22:34:15.709Z,1.60
2023-05-09T22:37:17.613Z,2.00
2023-05-09T22:40:20.627Z,2.00
2023-05-09T22:43:22.433Z,1.67
2023-05-09T22:46:24.186Z,1.88
2023-05-09T22:49:25.956Z,1.70
2023-05-09T22:52:27.736Z,1.70
2023-05-09T22:55:29.452Z,2.00
2023-05-09T22:58:31.111Z,1.90
2023-05-09T23:01:33.287Z,1.85
2023-05-09T23:04:35.079Z,1.67
2023-05-09T23:07:37.539Z,1.58
2023-05-09T23:10:39.331Z,1.40
2023-05-09T23:13:40.993Z,1.40
2023-05-09T23:16:42.918Z,1.23
2023-05-09T23:19:45.977Z,1.40
2023-05-09T23:22:49.654Z,1.30
2023-05-09T23:25:51.345Z,1.30
2023-05-09T23:28:55.209Z,1.27
2023-05-09T23:31:57.090Z,1.40
2023-05-09T23:34:58.766Z,1.45
2023-05-09T23:38:00.471Z,1.35
2023-05-09T23:41:02.097Z,1.60
2023-05-09T23:44:04.049Z,1.50
2023-05-09T23:47:05.831Z,1.40
2023-05-09T23:50:08.340Z,1.50
2023-05-09T23:53:10.086Z,1.50
2023-05-09T23:56:11.699Z,1.42
2023-05-09T23:59:13.762Z,1.83
